sensor_id;sensor_type;location;lat;lon;timestamp;temperature;humidity
69901;DHT22;57183;50.930;5.406;2022-12-13T02:52:18;-2.90;99.90
69901;DHT22;57183;50.930;5.406;2022-12-13T06:45:54;-4.80;99.90
69901;DHT22;57183;50.930;5.406;2022-12-13T06:48:20;-4.70;99.90
69901;DHT22;57183;50.930;5.406;2022-12-13T06:50:45;-4.80;99.90
69901;DHT22;57183;50.930;5.406;2022-12-13T08:08:17;-4.10;99.90
69901;DHT22;57183;50.930;5.406;2022-12-13T08:36:36;-3.40;99.90
69901;DHT22;57183;50.930;5.406;2022-12-13T08:51:59;-2.60;99.90
69901;DHT22;57183;50.930;5.406;2022-12-13T08:54:25;-2.40;99.90
69901;DHT22;57183;50.930;5.406;2022-12-13T08:56:51;-2.30;99.90
69901;DHT22;57183;50.930;5.406;2022-12-13T08:59:22;-1.70;99.90
69901;DHT22;57183;50.930;5.406;2022-12-13T09:02:10;-1.10;99.90
69901;DHT22;57183;50.930;5.406;2022-12-13T09:04:39;-0.70;99.90
69901;DHT22;57183;50.930;5.406;2022-12-13T09:07:05;-0.60;99.90
69901;DHT22;57183;50.930;5.406;2022-12-13T09:09:31;-0.60;99.90
69901;DHT22;57183;50.930;5.406;2022-12-13T09:11:56;-0.90;99.90
69901;DHT22;57183;50.930;5.406;2022-12-13T09:14:22;-1.10;99.90
69901;DHT22;57183;50.930;5.406;2022-12-13T09:16:48;-1.20;99.90
69901;DHT22;57183;50.930;5.406;2022-12-13T09:19:13;-1.20;99.90
69901;DHT22;57183;50.930;5.406;2022-12-13T09:21:39;-0.90;99.90
69901;DHT22;57183;50.930;5.406;2022-12-13T09:24:05;-0.50;99.90
69901;DHT22;57183;50.930;5.406;2022-12-13T09:26:30;0.00;99.90
69901;DHT22;57183;50.930;5.406;2022-12-13T09:28:56;0.10;99.90
69901;DHT22;57183;50.930;5.406;2022-12-13T09:31:22;0.20;99.90
69901;DHT22;57183;50.930;5.406;2022-12-13T09:33:47;0.00;99.90
69901;DHT22;57183;50.930;5.406;2022-12-13T09:36:18;0.10;99.90
69901;DHT22;57183;50.930;5.406;2022-12-13T09:38:44;0.30;99.90
69901;DHT22;57183;50.930;5.406;2022-12-13T09:41:15;0.20;99.90
69901;DHT22;57183;50.930;5.406;2022-12-13T09:43:42;0.20;99.90
69901;DHT22;57183;50.930;5.406;2022-12-13T09:46:20;0.00;99.90
69901;DHT22;57183;50.930;5.406;2022-12-13T09:48:47;0.20;99.90
69901;DHT22;57183;50.930;5.406;2022-12-13T09:51:14;0.40;99.90
69901;DHT22;57183;50.930;5.406;2022-12-13T09:53:42;0.60;99.90
69901;DHT22;57183;50.930;5.406;2022-12-13T09:56:11;0.60;99.90
69901;DHT22;57183;50.930;5.406;2022-12-13T09:58:39;0.70;99.90
69901;DHT22;57183;50.930;5.406;2022-12-13T10:01:14;0.90;99.90
69901;DHT22;57183;50.930;5.406;2022-12-13T10:04:17;1.00;99.90
69901;DHT22;57183;50.930;5.406;2022-12-13T10:19:14;1.20;99.90
69901;DHT22;57183;50.930;5.406;2022-12-13T10:21:45;1.40;99.90
69901;DHT22;57183;50.930;5.406;2022-12-13T10:26:44;1.40;99.90
69901;DHT22;57183;50.930;5.406;2022-12-13T10:29:33;1.40;99.90
69901;DHT22;57183;50.930;5.406;2022-12-13T10:32:19;1.40;99.90
69901;DHT22;57183;50.930;5.406;2022-12-13T10:35:18;1.60;99.90
69901;DHT22;57183;50.930;5.406;2022-12-13T10:37:47;1.70;99.90
69901;DHT22;57183;50.930;5.406;2022-12-13T10:40:35;1.90;99.90
69901;DHT22;57183;50.930;5.406;2022-12-13T10:46:17;2.00;99.90
69901;DHT22;57183;50.930;5.406;2022-12-13T10:48:49;2.30;99.90
69901;DHT22;57183;50.930;5.406;2022-12-13T10:51:24;2.50;99.90
69901;DHT22;57183;50.930;5.406;2022-12-13T10:56:36;2.60;99.90
69901;DHT22;57183;50.930;5.406;2022-12-13T11:01:46;2.50;99.90
69901;DHT22;57183;50.930;5.406;2022-12-13T11:07:51;2.70;99.90
69901;DHT22;57183;50.930;5.406;2022-12-13T11:10:25;2.80;99.90
69901;DHT22;57183;50.930;5.406;2022-12-13T11:13:32;3.00;99.90
69901;DHT22;57183;50.930;5.406;2022-12-13T11:18:55;3.10;99.90
69901;DHT22;57183;50.930;5.406;2022-12-13T11:21:39;3.10;99.90
69901;DHT22;57183;50.930;5.406;2022-12-13T11:27:44;3.10;99.90
69901;DHT22;57183;50.930;5.406;2022-12-13T11:30:32;3.20;99.90
69901;DHT22;57183;50.930;5.406;2022-12-13T11:39:28;2.70;99.90
69901;DHT22;57183;50.930;5.406;2022-12-13T11:51:08;3.20;99.90
69901;DHT22;57183;50.930;5.406;2022-12-13T11:53:59;2.90;99.90
69901;DHT22;57183;50.930;5.406;2022-12-13T11:56:51;3.10;99.90
69901;DHT22;57183;50.930;5.406;2022-12-13T12:18:58;3.50;99.90
69901;DHT22;57183;50.930;5.406;2022-12-13T12:21:37;3.70;99.90
69901;DHT22;57183;50.930;5.406;2022-12-13T12:40:14;3.30;99.90
69901;DHT22;57183;50.930;5.406;2022-12-13T12:43:04;3.00;99.90
69901;DHT22;57183;50.930;5.406;2022-12-13T12:52:39;2.80;99.90
69901;DHT22;57183;50.930;5.406;2022-12-13T12:55:10;3.00;99.90
69901;DHT22;57183;50.930;5.406;2022-12-13T13:04:00;3.10;99.90
69901;DHT22;57183;50.930;5.406;2022-12-13T13:06:44;2.70;99.90
69901;DHT22;57183;50.930;5.406;2022-12-13T13:09:20;2.50;99.90
69901;DHT22;57183;50.930;5.406;2022-12-13T13:11:48;2.60;99.90
69901;DHT22;57183;50.930;5.406;2022-12-13T13:24:56;2.00;99.90
69901;DHT22;57183;50.930;5.406;2022-12-13T13:27:30;2.40;99.90
69901;DHT22;57183;50.930;5.406;2022-12-13T13:30:28;2.40;99.90
69901;DHT22;57183;50.930;5.406;2022-12-13T13:32:56;2.40;99.90
69901;DHT22;57183;50.930;5.406;2022-12-13T13:38:48;2.70;99.90
69901;DHT22;57183;50.930;5.406;2022-12-13T13:42:18;2.60;99.90
69901;DHT22;57183;50.930;5.406;2022-12-13T13:45:29;2.70;99.90
69901;DHT22;57183;50.930;5.406;2022-12-13T14:06:12;2.60;99.90
69901;DHT22;57183;50.930;5.406;2022-12-13T14:09:09;2.50;99.90
69901;DHT22;57183;50.930;5.406;2022-12-13T14:20:21;2.80;99.90
69901;DHT22;57183;50.930;5.406;2022-12-13T14:29:14;2.40;99.90
69901;DHT22;57183;50.930;5.406;2022-12-13T14:31:45;2.30;99.90
69901;DHT22;57183;50.930;5.406;2022-12-13T14:34:31;2.30;99.90
69901;DHT22;57183;50.930;5.406;2022-12-13T14:37:03;2.30;99.90
69901;DHT22;57183;50.930;5.406;2022-12-13T14:39:32;2.20;99.90
69901;DHT22;57183;50.930;5.406;2022-12-13T14:42:17;2.20;99.90
69901;DHT22;57183;50.930;5.406;2022-12-13T14:44:45;2.30;99.90
69901;DHT22;57183;50.930;5.406;2022-12-13T14:47:19;2.20;99.90
69901;DHT22;57183;50.930;5.406;2022-12-13T14:49:52;2.50;99.90
69901;DHT22;57183;50.930;5.406;2022-12-13T14:52:23;2.40;99.90
69901;DHT22;57183;50.930;5.406;2022-12-13T14:55:01;2.30;99.90
69901;DHT22;57183;50.930;5.406;2022-12-13T15:00:24;2.40;99.90
69901;DHT22;57183;50.930;5.406;2022-12-13T15:02:56;2.30;99.90
69901;DHT22;57183;50.930;5.406;2022-12-13T15:05:31;2.40;99.90
69901;DHT22;57183;50.930;5.406;2022-12-13T15:08:08;2.40;99.90
69901;DHT22;57183;50.930;5.406;2022-12-13T15:10:50;2.30;99.90
69901;DHT22;57183;50.930;5.406;2022-12-13T15:16:31;2.30;99.90
69901;DHT22;57183;50.930;5.406;2022-12-13T15:19:06;2.00;99.90
69901;DHT22;57183;50.930;5.406;2022-12-13T15:21:39;1.90;99.90
69901;DHT22;57183;50.930;5.406;2022-12-13T15:24:07;1.90;99.90
69901;DHT22;57183;50.930;5.406;2022-12-13T15:26:37;2.00;99.90
69901;DHT22;57183;50.930;5.406;2022-12-13T15:29:05;1.90;99.90
69901;DHT22;57183;50.930;5.406;2022-12-13T15:40:06;1.70;99.90
69901;DHT22;57183;50.930;5.406;2022-12-13T15:47:54;1.60;99.90
69901;DHT22;57183;50.930;5.406;2022-12-13T15:50:37;1.70;99.90
69901;DHT22;57183;50.930;5.406;2022-12-13T15:53:20;1.90;99.90
69901;DHT22;57183;50.930;5.406;2022-12-13T15:56:20;1.80;99.90
69901;DHT22;57183;50.930;5.406;2022-12-13T15:58:38;1.70;99.90
69901;DHT22;57183;50.930;5.406;2022-12-13T16:04:30;1.30;99.90
69901;DHT22;57183;50.930;5.406;2022-12-13T16:07:00;1.40;99.90
69901;DHT22;57183;50.930;5.406;2022-12-13T16:09:33;1.40;99.90
69901;DHT22;57183;50.930;5.406;2022-12-13T16:12:03;1.40;99.90
69901;DHT22;57183;50.930;5.406;2022-12-13T16:17:23;1.40;99.90
69901;DHT22;57183;50.930;5.406;2022-12-13T16:19:56;1.50;99.90
69901;DHT22;57183;50.930;5.406;2022-12-13T16:22:24;1.40;99.90
69901;DHT22;57183;50.930;5.406;2022-12-13T16:24:53;1.30;99.90
69901;DHT22;57183;50.930;5.406;2022-12-13T16:27:24;1.40;99.90
69901;DHT22;57183;50.930;5.406;2022-12-13T16:29:50;1.30;99.90
69901;DHT22;57183;50.930;5.406;2022-12-13T16:32:16;1.20;99.90
69901;DHT22;57183;50.930;5.406;2022-12-13T16:34:42;1.30;99.90
69901;DHT22;57183;50.930;5.406;2022-12-13T16:37:09;1.40;99.90
69901;DHT22;57183;50.930;5.406;2022-12-13T16:39:36;1.40;99.90
69901;DHT22;57183;50.930;5.406;2022-12-13T16:42:02;1.30;99.90
69901;DHT22;57183;50.930;5.406;2022-12-13T16:44:37;1.50;99.90
69901;DHT22;57183;50.930;5.406;2022-12-13T16:47:07;1.60;99.90
69901;DHT22;57183;50.930;5.406;2022-12-13T16:49:43;1.50;99.90
69901;DHT22;57183;50.930;5.406;2022-12-13T16:52:09;1.60;99.90
69901;DHT22;57183;50.930;5.406;2022-12-13T16:57:07;1.70;99.90
69901;DHT22;57183;50.930;5.406;2022-12-13T16:59:33;1.80;99.90
69901;DHT22;57183;50.930;5.406;2022-12-13T17:02:00;1.70;99.90
69901;DHT22;57183;50.930;5.406;2022-12-13T17:04:28;1.80;99.90
69901;DHT22;57183;50.930;5.406;2022-12-13T17:06:54;1.80;99.90
69901;DHT22;57183;50.930;5.406;2022-12-13T17:09:20;2.00;99.90
69901;DHT22;57183;50.930;5.406;2022-12-13T17:11:46;1.60;99.90
69901;DHT22;57183;50.930;5.406;2022-12-13T17:14:15;1.40;99.90
69901;DHT22;57183;50.930;5.406;2022-12-13T17:16:41;1.50;99.90
69901;DHT22;57183;50.930;5.406;2022-12-13T17:19:09;1.50;99.90
69901;DHT22;57183;50.930;5.406;2022-12-13T17:21:35;1.40;99.90
69901;DHT22;57183;50.930;5.406;2022-12-13T17:24:01;1.40;99.90
69901;DHT22;57183;50.930;5.406;2022-12-13T17:26:30;1.50;99.90
69901;DHT22;57183;50.930;5.406;2022-12-13T17:28:59;1.40;99.90
69901;DHT22;57183;50.930;5.406;2022-12-13T17:31:25;1.40;99.90
69901;DHT22;57183;50.930;5.406;2022-12-13T17:33:51;1.70;99.90
69901;DHT22;57183;50.930;5.406;2022-12-13T17:36:18;1.70;99.90
69901;DHT22;57183;50.930;5.406;2022-12-13T17:38:47;1.80;99.90
69901;DHT22;57183;50.930;5.406;2022-12-13T17:41:15;1.90;99.90
69901;DHT22;57183;50.930;5.406;2022-12-13T17:43:41;1.70;99.90
69901;DHT22;57183;50.930;5.406;2022-12-13T17:46:16;1.80;99.90
69901;DHT22;57183;50.930;5.406;2022-12-13T17:48:44;1.80;99.90
69901;DHT22;57183;50.930;5.406;2022-12-13T17:51:13;1.90;99.90
69901;DHT22;57183;50.930;5.406;2022-12-13T17:53:43;1.70;99.90
69901;DHT22;57183;50.930;5.406;2022-12-13T17:56:12;1.60;99.90
69901;DHT22;57183;50.930;5.406;2022-12-13T17:58:45;1.80;99.90
69901;DHT22;57183;50.930;5.406;2022-12-13T18:01:17;1.60;99.90
69901;DHT22;57183;50.930;5.406;2022-12-13T18:03:43;1.70;99.90
69901;DHT22;57183;50.930;5.406;2022-12-13T18:06:10;1.80;99.90
69901;DHT22;57183;50.930;5.406;2022-12-13T18:08:38;1.90;99.90
69901;DHT22;57183;50.930;5.406;2022-12-13T18:11:08;1.90;99.90
69901;DHT22;57183;50.930;5.406;2022-12-13T18:13:36;1.70;99.90
69901;DHT22;57183;50.930;5.406;2022-12-13T18:16:07;1.60;99.90
69901;DHT22;57183;50.930;5.406;2022-12-13T18:18:34;1.70;99.90
69901;DHT22;57183;50.930;5.406;2022-12-13T18:21:05;1.80;99.90
69901;DHT22;57183;50.930;5.406;2022-12-13T18:23:33;1.90;99.90
69901;DHT22;57183;50.930;5.406;2022-12-13T18:26:05;1.80;99.90
69901;DHT22;57183;50.930;5.406;2022-12-13T18:28:34;1.70;99.90
69901;DHT22;57183;50.930;5.406;2022-12-13T18:31:08;1.80;99.90
69901;DHT22;57183;50.930;5.406;2022-12-13T18:33:35;1.70;99.90
69901;DHT22;57183;50.930;5.406;2022-12-13T18:36:02;1.80;99.90
69901;DHT22;57183;50.930;5.406;2022-12-13T18:38:28;1.80;99.90
69901;DHT22;57183;50.930;5.406;2022-12-13T18:40:54;1.90;99.90
69901;DHT22;57183;50.930;5.406;2022-12-13T18:43:23;1.90;99.90
69901;DHT22;57183;50.930;5.406;2022-12-13T18:45:50;1.90;99.90
69901;DHT22;57183;50.930;5.406;2022-12-13T18:48:22;1.90;99.90
69901;DHT22;57183;50.930;5.406;2022-12-13T18:50:49;1.80;99.90
69901;DHT22;57183;50.930;5.406;2022-12-13T18:55:51;1.80;99.90
69901;DHT22;57183;50.930;5.406;2022-12-13T18:58:17;1.50;99.90
69901;DHT22;57183;50.930;5.406;2022-12-13T19:00:46;1.60;99.90
69901;DHT22;57183;50.930;5.406;2022-12-13T19:03:13;1.50;99.90
69901;DHT22;57183;50.930;5.406;2022-12-13T19:05:40;1.50;99.90
69901;DHT22;57183;50.930;5.406;2022-12-13T19:08:11;1.40;99.90
69901;DHT22;57183;50.930;5.406;2022-12-13T19:10:39;1.30;99.90
69901;DHT22;57183;50.930;5.406;2022-12-13T19:13:05;1.40;99.90
69901;DHT22;57183;50.930;5.406;2022-12-13T19:15:37;1.50;99.90
69901;DHT22;57183;50.930;5.406;2022-12-13T19:20:59;1.40;99.90
69901;DHT22;57183;50.930;5.406;2022-12-13T19:26:11;1.50;99.90
69901;DHT22;57183;50.930;5.406;2022-12-13T19:28:38;1.40;99.90
69901;DHT22;57183;50.930;5.406;2022-12-13T19:33:42;1.50;99.90
69901;DHT22;57183;50.930;5.406;2022-12-13T19:36:09;1.30;99.90
69901;DHT22;57183;50.930;5.406;2022-12-13T19:38:53;1.40;99.90
69901;DHT22;57183;50.930;5.406;2022-12-13T19:41:26;1.30;99.90
69901;DHT22;57183;50.930;5.406;2022-12-13T19:43:54;1.30;99.90
69901;DHT22;57183;50.930;5.406;2022-12-13T19:46:20;1.30;99.90
69901;DHT22;57183;50.930;5.406;2022-12-13T19:48:46;1.30;99.90
69901;DHT22;57183;50.930;5.406;2022-12-13T19:51:13;1.20;99.90
69901;DHT22;57183;50.930;5.406;2022-12-13T19:53:39;1.30;99.90
69901;DHT22;57183;50.930;5.406;2022-12-13T19:56:11;1.30;99.90
69901;DHT22;57183;50.930;5.406;2022-12-13T19:58:38;1.10;99.90
69901;DHT22;57183;50.930;5.406;2022-12-13T20:01:07;0.90;99.90
69901;DHT22;57183;50.930;5.406;2022-12-13T20:03:43;0.70;99.90
69901;DHT22;57183;50.930;5.406;2022-12-13T20:06:12;0.70;99.90
69901;DHT22;57183;50.930;5.406;2022-12-13T20:08:39;0.60;99.90
69901;DHT22;57183;50.930;5.406;2022-12-13T20:11:14;0.60;99.90
69901;DHT22;57183;50.930;5.406;2022-12-13T20:13:44;0.80;99.90
69901;DHT22;57183;50.930;5.406;2022-12-13T20:16:16;0.90;99.90
69901;DHT22;57183;50.930;5.406;2022-12-13T20:18:42;1.00;99.90
69901;DHT22;57183;50.930;5.406;2022-12-13T20:21:10;0.80;99.90
69901;DHT22;57183;50.930;5.406;2022-12-13T20:23:40;0.80;99.90
69901;DHT22;57183;50.930;5.406;2022-12-13T20:26:09;0.90;99.90
69901;DHT22;57183;50.930;5.406;2022-12-13T20:28:36;1.10;99.90
69901;DHT22;57183;50.930;5.406;2022-12-13T20:33:46;0.80;99.90
69901;DHT22;57183;50.930;5.406;2022-12-13T20:36:14;0.70;99.90
69901;DHT22;57183;50.930;5.406;2022-12-13T20:38:41;0.60;99.90
69901;DHT22;57183;50.930;5.406;2022-12-13T20:41:09;0.60;99.90
69901;DHT22;57183;50.930;5.406;2022-12-13T20:43:36;0.60;99.90
69901;DHT22;57183;50.930;5.406;2022-12-13T20:46:13;0.80;99.90
69901;DHT22;57183;50.930;5.406;2022-12-13T20:48:44;0.80;99.90
69901;DHT22;57183;50.930;5.406;2022-12-13T20:51:24;0.90;99.90
69901;DHT22;57183;50.930;5.406;2022-12-13T20:54:00;1.00;99.90
69901;DHT22;57183;50.930;5.406;2022-12-13T20:56:32;0.90;99.90
69901;DHT22;57183;50.930;5.406;2022-12-13T20:59:03;1.10;99.90
69901;DHT22;57183;50.930;5.406;2022-12-13T21:01:32;0.90;99.90
69901;DHT22;57183;50.930;5.406;2022-12-13T21:04:01;1.00;99.90
69901;DHT22;57183;50.930;5.406;2022-12-13T21:06:28;0.70;99.90
69901;DHT22;57183;50.930;5.406;2022-12-13T21:08:55;0.80;99.90
69901;DHT22;57183;50.930;5.406;2022-12-13T21:11:54;1.00;99.90
69901;DHT22;57183;50.930;5.406;2022-12-13T21:14:26;0.90;99.90
69901;DHT22;57183;50.930;5.406;2022-12-13T21:17:00;0.90;99.90
69901;DHT22;57183;50.930;5.406;2022-12-13T21:19:30;0.90;99.90
69901;DHT22;57183;50.930;5.406;2022-12-13T21:28:43;0.80;99.90
69901;DHT22;57183;50.930;5.406;2022-12-13T21:31:11;0.90;99.90
69901;DHT22;57183;50.930;5.406;2022-12-13T21:33:39;0.80;99.90
69901;DHT22;57183;50.930;5.406;2022-12-13T21:38:41;1.10;99.90
69901;DHT22;57183;50.930;5.406;2022-12-13T21:41:09;0.80;99.90
69901;DHT22;57183;50.930;5.406;2022-12-13T21:43:36;0.90;99.90
69901;DHT22;57183;50.930;5.406;2022-12-13T21:46:07;0.80;99.90
69901;DHT22;57183;50.930;5.406;2022-12-13T21:48:35;1.00;99.90
69901;DHT22;57183;50.930;5.406;2022-12-13T21:51:05;1.00;99.90
69901;DHT22;57183;50.930;5.406;2022-12-13T21:53:32;0.90;99.90
69901;DHT22;57183;50.930;5.406;2022-12-13T21:55:58;0.90;99.90
69901;DHT22;57183;50.930;5.406;2022-12-13T22:01:18;0.70;99.90
69901;DHT22;57183;50.930;5.406;2022-12-13T22:14:05;0.70;99.90
69901;DHT22;57183;50.930;5.406;2022-12-13T22:16:32;0.70;99.90
69901;DHT22;57183;50.930;5.406;2022-12-13T22:18:58;0.90;99.90
69901;DHT22;57183;50.930;5.406;2022-12-13T22:21:28;0.80;99.90
69901;DHT22;57183;50.930;5.406;2022-12-13T22:26:29;0.80;99.90
69901;DHT22;57183;50.930;5.406;2022-12-13T22:34:08;0.90;99.90
69901;DHT22;57183;50.930;5.406;2022-12-13T22:36:34;1.20;99.90
69901;DHT22;57183;50.930;5.406;2022-12-13T22:39:00;1.00;99.90
69901;DHT22;57183;50.930;5.406;2022-12-13T22:41:28;1.00;99.90
69901;DHT22;57183;50.930;5.406;2022-12-13T22:43:54;1.00;99.90
69901;DHT22;57183;50.930;5.406;2022-12-13T22:46:20;0.90;99.90
69901;DHT22;57183;50.930;5.406;2022-12-13T22:48:49;1.10;99.90
69901;DHT22;57183;50.930;5.406;2022-12-13T22:51:17;0.80;99.90
69901;DHT22;57183;50.930;5.406;2022-12-13T22:53:45;0.60;99.90
69901;DHT22;57183;50.930;5.406;2022-12-13T22:56:22;0.70;99.90
69901;DHT22;57183;50.930;5.406;2022-12-13T22:58:56;0.60;99.90
69901;DHT22;57183;50.930;5.406;2022-12-13T23:01:42;0.60;99.90
69901;DHT22;57183;50.930;5.406;2022-12-13T23:04:11;0.60;99.90
69901;DHT22;57183;50.930;5.406;2022-12-13T23:06:39;0.90;99.90
69901;DHT22;57183;50.930;5.406;2022-12-13T23:09:11;1.00;99.90
69901;DHT22;57183;50.930;5.406;2022-12-13T23:15:05;0.80;99.90
69901;DHT22;57183;50.930;5.406;2022-12-13T23:17:40;0.80;99.90
69901;DHT22;57183;50.930;5.406;2022-12-13T23:20:07;0.80;99.90
69901;DHT22;57183;50.930;5.406;2022-12-13T23:22:33;0.80;99.90
69901;DHT22;57183;50.930;5.406;2022-12-13T23:24:59;0.90;99.90
69901;DHT22;57183;50.930;5.406;2022-12-13T23:27:28;0.80;99.90
69901;DHT22;57183;50.930;5.406;2022-12-13T23:29:54;0.90;99.90
69901;DHT22;57183;50.930;5.406;2022-12-13T23:32:21;0.60;99.90
69901;DHT22;57183;50.930;5.406;2022-12-13T23:34:47;0.50;99.90
69901;DHT22;57183;50.930;5.406;2022-12-13T23:39:48;0.10;99.90
69901;DHT22;57183;50.930;5.406;2022-12-13T23:45:08;-0.40;99.90
69901;DHT22;57183;50.930;5.406;2022-12-13T23:47:36;0.00;99.90
69901;DHT22;57183;50.930;5.406;2022-12-13T23:50:02;0.20;99.90
69901;DHT22;57183;50.930;5.406;2022-12-13T23:52:29;0.60;99.90
69901;DHT22;57183;50.930;5.406;2022-12-13T23:54:55;0.70;99.90
69901;DHT22;57183;50.930;5.406;2022-12-13T23:57:23;0.90;99.90
69901;DHT22;57183;50.930;5.406;2022-12-13T23:59:52;0.90;99.90
